Time;durP1;ratioP1;P1;durP2;ratioP2;P2;SDS_P1;SDS_P2;PMS_P1;PMS_P2;Temp;Humidity;BMP_temperature;BMP_pressure;BME280_temperature;BME280_humidity;BME280_pressure;Samples;Min_cycle;Max_cycle;Signal;HPM_P1;HPM_P2
2023/10/23 00:00:25;;;;;;;7.67;3.40;;;7.20;99.90;;;;;;5041245;28;20238;-83
2023/10/23 00:02:53;;;;;;;6.50;3.33;;;7.10;99.90;;;;;;5046574;28;20232;-83
2023/10/23 00:05:20;;;;;;;3.90;3.60;;;7.00;99.90;;;;;;5045647;28;20255;-83
2023/10/23 00:07:46;;;;;;;3.80;3.40;;;7.00;99.90;;;;;;5039308;28;20306;-83
2023/10/23 00:10:13;;;;;;;5.50;3.63;;;6.90;99.90;;;;;;5035258;28;20229;-83
2023/10/23 00:12:40;;;;;;;4.07;3.63;;;6.80;99.90;;;;;;5050418;28;20618;-82
2023/10/23 00:15:08;;;;;;;5.53;3.67;;;6.80;99.90;;;;;;5040434;28;20222;-84
2023/10/23 00:17:34;;;;;;;5.47;3.90;;;6.70;99.90;;;;;;5030807;28;21169;-83
2023/10/23 00:20:02;;;;;;;4.80;3.77;;;6.60;99.90;;;;;;5033364;28;20944;-83
2023/10/23 00:22:29;;;;;;;6.07;3.93;;;6.60;99.90;;;;;;5041531;28;20228;-84
2023/10/23 00:24:56;;;;;;;5.07;3.60;;;6.50;99.90;;;;;;5040722;28;22589;-83
2023/10/23 00:27:23;;;;;;;4.30;3.90;;;6.50;99.90;;;;;;5037911;28;20217;-84
2023/10/23 00:29:50;;;;;;;4.63;4.10;;;6.40;99.90;;;;;;5040500;28;20252;-83
2023/10/23 00:32:17;;;;;;;4.40;4.00;;;6.40;99.90;;;;;;5047749;28;20224;-84
2023/10/23 00:34:43;;;;;;;6.23;4.23;;;6.40;99.90;;;;;;5030350;28;20442;-84
2023/10/23 00:37:12;;;;;;;5.30;4.60;;;6.30;99.90;;;;;;5037620;28;20224;-84
2023/10/23 00:39:38;;;;;;;8.07;4.37;;;6.30;99.90;;;;;;5039300;28;20257;-84
2023/10/23 00:42:06;;;;;;;5.67;5.00;;;6.30;99.90;;;;;;5042299;28;20311;-83
2023/10/23 00:44:33;;;;;;;5.60;4.43;;;6.20;99.90;;;;;;5039892;28;20241;-84
2023/10/23 00:47:01;;;;;;;5.07;4.27;;;6.20;99.90;;;;;;5020612;28;20308;-84
2023/10/23 00:49:28;;;;;;;5.63;4.60;;;6.20;99.90;;;;;;5035557;28;20265;-84
2023/10/23 00:51:56;;;;;;;5.07;4.57;;;6.20;99.90;;;;;;5052920;28;20245;-84
2023/10/23 00:54:24;;;;;;;6.30;3.87;;;6.10;99.90;;;;;;5038027;28;20232;-83
2023/10/23 00:56:53;;;;;;;5.00;3.80;;;6.10;99.90;;;;;;5041458;28;20282;-84
2023/10/23 00:59:21;;;;;;;4.40;3.93;;;6.10;99.90;;;;;;5034474;28;20231;-82
2023/10/23 01:01:49;;;;;;;7.17;4.30;;;6.00;99.90;;;;;;5040859;28;20754;-83
2023/10/23 01:04:17;;;;;;;7.40;4.07;;;6.00;99.90;;;;;;5050503;28;20340;-83
2023/10/23 01:06:44;;;;;;;5.00;4.30;;;5.90;99.90;;;;;;5036417;28;20224;-83
2023/10/23 01:09:11;;;;;;;5.37;4.87;;;5.90;99.90;;;;;;5035696;28;20247;-83
2023/10/23 01:11:39;;;;;;;5.57;4.70;;;5.80;99.90;;;;;;5043418;28;20254;-83
2023/10/23 01:14:06;;;;;;;7.70;4.80;;;5.80;99.90;;;;;;5050585;28;20706;-82
2023/10/23 01:16:33;;;;;;;5.27;4.10;;;5.80;99.90;;;;;;5034592;28;20318;-82
2023/10/23 01:19:00;;;;;;;4.63;4.23;;;5.70;99.90;;;;;;5033295;28;20232;-82
2023/10/23 01:21:27;;;;;;;8.47;4.60;;;5.60;99.90;;;;;;5047237;28;20228;-82
2023/10/23 01:23:58;;;;;;;14.43;4.73;;;5.70;99.90;;;;;;5036497;28;20240;-82
2023/10/23 01:26:26;;;;;;;4.27;3.87;;;5.60;99.90;;;;;;5041024;28;20768;-83
2023/10/23 01:28:54;;;;;;;13.13;5.20;;;5.60;99.90;;;;;;5047650;28;20228;-84
2023/10/23 01:31:20;;;;;;;7.33;5.00;;;5.50;99.90;;;;;;5039063;28;20226;-83
2023/10/23 01:33:47;;;;;;;4.70;4.20;;;5.50;99.90;;;;;;5043498;28;20651;-82
2023/10/23 01:36:14;;;;;;;5.67;4.60;;;5.50;99.90;;;;;;5040004;28;20743;-83
2023/10/23 01:38:43;;;;;;;7.90;5.47;;;5.40;99.90;;;;;;5036464;28;20884;-82
2023/10/23 01:41:10;;;;;;;8.27;5.73;;;5.40;99.90;;;;;;5037651;28;20223;-82
2023/10/23 01:43:38;;;;;;;9.63;5.47;;;5.40;99.90;;;;;;5041577;28;20233;-82
2023/10/23 01:46:05;;;;;;;12.03;4.90;;;5.40;99.90;;;;;;5043223;28;20237;-84
2023/10/23 01:48:33;;;;;;;13.50;5.67;;;5.30;99.90;;;;;;5063801;28;20280;-84
2023/10/23 01:51:01;;;;;;;4.97;4.47;;;5.30;99.90;;;;;;5048723;28;20235;-83
2023/10/23 01:53:28;;;;;;;8.77;4.50;;;5.30;99.90;;;;;;5034603;28;20230;-84
2023/10/23 01:55:55;;;;;;;5.93;5.03;;;5.20;99.90;;;;;;5039799;28;20236;-82
2023/10/23 01:58:22;;;;;;;5.57;5.07;;;5.20;99.90;;;;;;5050468;28;20702;-83
2023/10/23 02:00:50;;;;;;;5.97;5.07;;;5.20;99.90;;;;;;5045684;28;20228;-84
2023/10/23 02:03:17;;;;;;;15.03;5.67;;;5.20;99.90;;;;;;5048749;28;20264;-82
2023/10/23 02:05:46;;;;;;;20.40;5.63;;;5.20;99.90;;;;;;5040221;28;20228;-83
2023/10/23 02:08:12;;;;;;;30.37;5.90;;;5.20;99.90;;;;;;5038333;28;20224;-83
2023/10/23 02:10:39;;;;;;;5.83;5.00;;;5.20;99.90;;;;;;5056260;28;20227;-83
2023/10/23 02:13:08;;;;;;;9.90;5.00;;;5.10;99.90;;;;;;5045028;28;20248;-83
2023/10/23 02:15:34;;;;;;;29.13;7.00;;;5.20;99.90;;;;;;5046613;28;20226;-83
2023/10/23 02:18:03;;;;;;;5.90;4.93;;;5.10;99.90;;;;;;5044854;28;20233;-83
2023/10/23 02:20:29;;;;;;;5.90;4.83;;;5.20;99.90;;;;;;5039837;28;20986;-83
2023/10/23 02:22:56;;;;;;;7.13;5.60;;;5.20;99.90;;;;;;5043337;28;20962;-83
2023/10/23 02:25:22;;;;;;;9.10;4.80;;;5.10;99.90;;;;;;5042332;28;20227;-82
2023/10/23 02:27:50;;;;;;;5.07;4.17;;;5.10;99.90;;;;;;5044615;28;20321;-83
2023/10/23 02:30:18;;;;;;;5.20;4.73;;;5.10;99.90;;;;;;5047565;28;20793;-83
2023/10/23 02:32:44;;;;;;;17.97;5.70;;;5.10;99.90;;;;;;5053947;28;20279;-83
2023/10/23 02:35:13;;;;;;;8.73;5.50;;;5.10;99.90;;;;;;5039822;28;20301;-84
2023/10/23 02:37:40;;;;;;;8.00;5.47;;;5.10;99.90;;;;;;5039299;28;20249;-83
2023/10/23 02:40:08;;;;;;;213.10;15.00;;;5.10;99.90;;;;;;5041560;28;20226;-83
2023/10/23 02:42:35;;;;;;;6.97;4.60;;;5.00;99.90;;;;;;5043543;28;20229;-83
2023/10/23 02:45:02;;;;;;;7.77;5.47;;;5.00;99.90;;;;;;5037497;28;20285;-82
2023/10/23 02:47:29;;;;;;;264.57;22.47;;;5.00;99.90;;;;;;5037047;28;20254;-82
2023/10/23 02:49:56;;;;;;;56.63;8.20;;;5.00;99.90;;;;;;5039109;28;20215;-81
2023/10/23 02:52:24;;;;;;;9.80;6.73;;;5.00;99.90;;;;;;5044483;28;20297;-82
2023/10/23 02:54:51;;;;;;;241.60;16.17;;;5.00;99.90;;;;;;5045038;28;20653;-82
2023/10/23 02:57:18;;;;;;;11.80;6.50;;;5.00;99.90;;;;;;5041584;28;20238;-82
2023/10/23 02:59:47;;;;;;;13.87;6.57;;;5.00;99.90;;;;;;5034455;28;20235;-82
2023/10/23 03:02:14;;;;;;;101.83;11.00;;;5.00;99.90;;;;;;5042351;28;20253;-81
2023/10/23 03:04:42;;;;;;;7.60;5.00;;;5.00;99.90;;;;;;5044795;28;20235;-80
2023/10/23 03:07:09;;;;;;;21.53;6.20;;;5.00;99.90;;;;;;5041106;28;20223;-82
2023/10/23 03:09:37;;;;;;;11.77;5.30;;;5.00;99.90;;;;;;5046893;28;20598;-81
2023/10/23 03:12:05;;;;;;;21.43;6.00;;;5.00;99.90;;;;;;5039630;28;20214;-82
2023/10/23 03:14:32;;;;;;;6.50;5.70;;;5.00;99.90;;;;;;5055827;28;20237;-82
2023/10/23 03:17:00;;;;;;;5.73;5.13;;;4.90;99.90;;;;;;5037397;28;20372;-82
2023/10/23 03:19:27;;;;;;;19.60;5.97;;;4.90;99.90;;;;;;5029005;28;20233;-82
2023/10/23 03:21:53;;;;;;;16.13;5.50;;;4.90;99.90;;;;;;5041428;28;20246;-82
2023/10/23 03:24:20;;;;;;;12.73;5.57;;;4.80;99.90;;;;;;5042115;28;20246;-82
2023/10/23 03:26:48;;;;;;;71.10;9.13;;;4.80;99.90;;;;;;5059529;28;20227;-82
2023/10/23 03:29:15;;;;;;;51.40;7.60;;;4.80;99.90;;;;;;5040770;28;20233;-82
2023/10/23 03:31:44;;;;;;;28.40;6.47;;;4.80;99.90;;;;;;5037324;28;20781;-82
2023/10/23 03:34:09;;;;;;;8.30;5.33;;;4.80;99.90;;;;;;5042110;28;20266;-82
2023/10/23 03:36:36;;;;;;;5.67;5.10;;;4.70;99.90;;;;;;5035064;28;20449;-82
2023/10/23 03:39:03;;;;;;;6.27;5.30;;;4.70;99.90;;;;;;5035285;28;20232;-82
2023/10/23 03:41:30;;;;;;;8.93;5.53;;;4.70;99.90;;;;;;5036245;28;20249;-82
2023/10/23 03:44:00;;;;;;;11.70;6.33;;;4.70;99.90;;;;;;5038190;28;20321;-81
2023/10/23 03:46:27;;;;;;;14.50;6.20;;;4.70;99.90;;;;;;5041658;28;20258;-81
2023/10/23 03:48:54;;;;;;;10.03;6.13;;;4.70;99.90;;;;;;5043780;28;20228;-81
2023/10/23 03:51:21;;;;;;;8.93;6.70;;;4.70;99.90;;;;;;5032885;28;20222;-83
2023/10/23 03:53:47;;;;;;;9.30;6.70;;;4.70;99.90;;;;;;5030970;28;20225;-82
2023/10/23 03:56:14;;;;;;;11.17;7.57;;;4.70;99.90;;;;;;5040504;28;20215;-84
2023/10/23 03:58:41;;;;;;;9.27;6.33;;;4.70;99.90;;;;;;5045759;28;20940;-84
2023/10/23 04:01:09;;;;;;;11.97;5.40;;;4.70;99.90;;;;;;5048181;28;20271;-84
2023/10/23 04:03:36;;;;;;;65.90;8.10;;;4.60;99.90;;;;;;5043242;28;20234;-83
2023/10/23 04:06:03;;;;;;;531.33;33.10;;;4.60;99.90;;;;;;5032851;28;20612;-83
2023/10/23 04:08:30;;;;;;;35.77;5.83;;;4.60;99.90;;;;;;5041506;28;20230;-82
2023/10/23 04:10:58;;;;;;;34.97;6.33;;;4.60;99.90;;;;;;5034443;28;20237;-83
2023/10/23 04:13:25;;;;;;;18.43;4.90;;;4.50;99.90;;;;;;5044757;28;21274;-82
2023/10/23 04:15:53;;;;;;;163.77;13.57;;;4.50;99.90;;;;;;5036167;28;20316;-82
2023/10/23 04:18:21;;;;;;;33.40;5.47;;;4.40;99.90;;;;;;5042094;28;20225;-82
2023/10/23 04:20:48;;;;;;;302.23;22.83;;;4.40;99.90;;;;;;5034175;28;20222;-82
2023/10/23 04:23:15;;;;;;;365.57;26.67;;;4.30;99.90;;;;;;5031757;28;20225;-82
2023/10/23 04:25:41;;;;;;;95.63;9.47;;;4.40;99.90;;;;;;5038283;28;20367;-81
2023/10/23 04:28:08;;;;;;;15.63;6.97;;;4.30;99.90;;;;;;5039353;28;20225;-82
2023/10/23 04:30:35;;;;;;;9.40;6.70;;;4.30;99.90;;;;;;5042156;28;20590;-82
2023/10/23 04:33:02;;;;;;;10.43;7.50;;;4.30;99.90;;;;;;5036307;28;20232;-82
2023/10/23 04:35:33;;;;;;;8.83;6.57;;;4.30;99.90;;;;;;5037047;28;20320;-82
2023/10/23 04:37:59;;;;;;;6.97;5.00;;;4.30;99.90;;;;;;5038280;28;20492;-82
2023/10/23 04:40:26;;;;;;;288.10;25.17;;;4.30;99.90;;;;;;5052574;28;20964;-83
2023/10/23 04:42:53;;;;;;;131.33;12.60;;;4.30;99.90;;;;;;5041365;28;20222;-83
2023/10/23 04:45:20;;;;;;;407.10;30.30;;;4.30;99.90;;;;;;5031307;28;20230;-83
2023/10/23 04:47:47;;;;;;;100.37;13.00;;;4.30;99.90;;;;;;5043289;28;20250;-80
2023/10/23 04:50:16;;;;;;;164.57;15.50;;;4.30;99.90;;;;;;5041252;28;20295;-80
2023/10/23 04:52:44;;;;;;;247.30;19.67;;;4.30;99.90;;;;;;5045058;28;20323;-80
2023/10/23 04:55:11;;;;;;;35.80;8.50;;;4.30;99.90;;;;;;5038319;28;20233;-82
2023/10/23 04:57:38;;;;;;;584.77;41.53;;;4.30;99.90;;;;;;5045320;28;20233;-80
2023/10/23 05:00:06;;;;;;;93.33;13.77;;;4.30;99.90;;;;;;5044708;28;20230;-80
2023/10/23 05:02:33;;;;;;;40.27;7.97;;;4.30;99.90;;;;;;5038154;28;20238;-80
2023/10/23 05:04:59;;;;;;;429.37;30.47;;;4.30;99.90;;;;;;5048413;28;20228;-81
2023/10/23 05:07:26;;;;;;;406.90;29.73;;;4.30;99.90;;;;;;5046533;28;20632;-81
2023/10/23 05:09:54;;;;;;;172.60;17.00;;;4.30;99.90;;;;;;5048912;28;20253;-80
2023/10/23 05:12:21;;;;;;;64.97;10.40;;;4.40;99.90;;;;;;5044907;28;20715;-81
2023/10/23 05:14:47;;;;;;;102.80;12.10;;;4.30;99.90;;;;;;5044693;28;20235;-81
2023/10/23 05:17:15;;;;;;;173.20;15.53;;;4.30;99.90;;;;;;5037930;28;20235;-81
2023/10/23 05:19:42;;;;;;;92.93;13.47;;;4.30;99.90;;;;;;5045841;28;20311;-82
2023/10/23 05:22:09;;;;;;;319.47;24.43;;;4.30;99.90;;;;;;5051959;28;20735;-83
2023/10/23 05:24:35;;;;;;;138.97;14.50;;;4.40;99.90;;;;;;5058917;28;20229;-83
2023/10/23 05:27:03;;;;;;;233.30;20.80;;;4.30;99.90;;;;;;5057368;28;20261;-82
2023/10/23 05:29:30;;;;;;;20.57;9.03;;;4.30;99.90;;;;;;5048872;28;20233;-83
2023/10/23 05:31:58;;;;;;;69.63;10.27;;;4.30;99.90;;;;;;5059511;28;20578;-83
2023/10/23 05:34:25;;;;;;;55.50;10.87;;;4.30;99.90;;;;;;5054929;28;20238;-83
2023/10/23 05:36:51;;;;;;;77.17;13.47;;;4.30;99.90;;;;;;5039171;28;20314;-85
2023/10/23 05:39:18;;;;;;;142.50;16.93;;;4.30;99.90;;;;;;5039745;28;20230;-83
2023/10/23 05:41:45;;;;;;;257.23;21.90;;;4.30;99.90;;;;;;5048678;28;20224;-85
2023/10/23 05:44:13;;;;;;;32.17;9.40;;;4.30;99.90;;;;;;5047510;28;20770;-85
2023/10/23 05:46:40;;;;;;;109.70;15.43;;;4.30;99.90;;;;;;5042161;28;20225;-86
2023/10/23 05:49:07;;;;;;;46.87;11.07;;;4.30;99.90;;;;;;5061506;28;20355;-86
2023/10/23 05:51:34;;;;;;;149.93;22.70;;;4.30;99.90;;;;;;5037977;28;20230;-85
2023/10/23 05:54:02;;;;;;;157.90;22.20;;;4.30;99.90;;;;;;5042202;28;20226;-85
2023/10/23 05:56:30;;;;;;;81.33;25.50;;;4.30;99.90;;;;;;5042995;28;20262;-85
2023/10/23 05:58:57;;;;;;;243.60;29.10;;;4.30;99.90;;;;;;5048206;28;20434;-85
2023/10/23 06:01:25;;;;;;;475.60;56.87;;;4.40;99.90;;;;;;5053262;28;20234;-85
2023/10/23 06:03:52;;;;;;;348.33;50.60;;;4.40;99.90;;;;;;5045304;28;20280;-84
2023/10/23 06:06:19;;;;;;;229.33;32.83;;;4.40;99.90;;;;;;5047877;28;20299;-85
2023/10/23 06:08:46;;;;;;;303.47;27.50;;;4.50;99.90;;;;;;5055041;28;20227;-85
2023/10/23 06:11:12;;;;;;;135.70;18.13;;;4.50;99.90;;;;;;5044736;28;20223;-85
2023/10/23 06:13:40;;;;;;;266.33;23.97;;;4.50;99.90;;;;;;5051660;28;20226;-85
2023/10/23 06:16:07;;;;;;;365.20;31.20;;;4.60;99.90;;;;;;5040213;28;20227;-85
2023/10/23 06:18:36;;;;;;;225.77;20.17;;;4.60;99.90;;;;;;5056633;28;21182;-85
2023/10/23 06:21:05;;;;;;;137.77;17.43;;;4.70;99.90;;;;;;5039280;28;20227;-85
2023/10/23 06:23:33;;;;;;;263.87;23.53;;;4.70;99.90;;;;;;5041446;28;20246;-84
2023/10/23 06:26:00;;;;;;;290.33;25.53;;;4.70;99.90;;;;;;5036941;28;20231;-81
2023/10/23 06:28:27;;;;;;;95.70;14.33;;;4.80;99.90;;;;;;5039481;28;20227;-81
2023/10/23 06:30:53;;;;;;;204.63;24.00;;;4.80;99.90;;;;;;5047635;28;20228;-82
2023/10/23 06:33:20;;;;;;;136.53;16.60;;;4.80;99.90;;;;;;5038772;28;20825;-83
2023/10/23 06:35:56;;;;;;;133.03;17.77;;;4.90;99.90;;;;;;5044861;28;20257;-82
2023/10/23 06:38:23;;;;;;;138.00;18.77;;;4.90;99.90;;;;;;5042305;28;20236;-82
2023/10/23 06:40:50;;;;;;;183.23;20.83;;;4.90;99.90;;;;;;5050081;28;20309;-82
2023/10/23 06:43:16;;;;;;;114.07;16.47;;;5.10;99.90;;;;;;5045355;28;20844;-83
2023/10/23 06:45:43;;;;;;;91.53;16.13;;;5.00;99.90;;;;;;5048794;28;20230;-83
2023/10/23 06:48:10;;;;;;;34.03;13.03;;;5.10;99.90;;;;;;5039186;28;20870;-85
2023/10/23 06:50:38;;;;;;;37.77;13.53;;;5.10;99.90;;;;;;5053547;28;20223;-86
2023/10/23 06:53:06;;;;;;;204.67;22.13;;;5.20;99.90;;;;;;5065429;28;20224;-84
2023/10/23 06:55:32;;;;;;;319.93;29.27;;;5.20;99.90;;;;;;5041492;28;20314;-85
2023/10/23 06:57:59;;;;;;;233.23;23.53;;;5.30;99.90;;;;;;5043711;28;20227;-84
2023/10/23 07:00:25;;;;;;;242.07;23.60;;;5.30;99.90;;;;;;5048115;28;20245;-83
2023/10/23 07:02:52;;;;;;;169.50;18.70;;;5.30;99.90;;;;;;5042692;28;20216;-87
2023/10/23 07:05:19;;;;;;;113.57;15.90;;;5.40;99.90;;;;;;5040590;28;20683;-86
2023/10/23 07:07:45;;;;;;;148.10;19.07;;;5.50;99.90;;;;;;5051931;28;20935;-85
2023/10/23 07:10:13;;;;;;;321.57;30.37;;;5.50;99.90;;;;;;5044014;28;20211;-85
2023/10/23 07:12:40;;;;;;;214.57;22.90;;;5.60;99.90;;;;;;5051011;28;20219;-85
2023/10/23 07:15:08;;;;;;;105.10;14.73;;;5.70;99.90;;;;;;5038755;28;20236;-86
2023/10/23 07:17:35;;;;;;;93.37;14.27;;;5.70;99.90;;;;;;5047981;28;20228;-83
2023/10/23 07:20:02;;;;;;;272.90;23.90;;;5.90;99.90;;;;;;5046229;28;20236;-86
2023/10/23 07:22:28;;;;;;;143.57;16.73;;;5.90;99.90;;;;;;5050253;28;20224;-85
2023/10/23 07:24:55;;;;;;;160.17;18.30;;;5.90;99.90;;;;;;5045255;28;20238;-87
2023/10/23 07:27:24;;;;;;;116.67;14.77;;;6.00;99.90;;;;;;5058710;28;20216;-85
2023/10/23 07:29:50;;;;;;;100.07;13.73;;;6.00;99.90;;;;;;5051261;28;20726;-84
2023/10/23 07:32:17;;;;;;;113.87;14.37;;;6.10;99.90;;;;;;5056506;28;20703;-87
2023/10/23 07:34:44;;;;;;;122.03;15.07;;;6.10;99.90;;;;;;5053870;28;20663;-85
2023/10/23 07:37:11;;;;;;;97.93;12.80;;;6.20;99.90;;;;;;5051548;28;20229;-86
2023/10/23 07:39:37;;;;;;;80.43;13.50;;;6.20;99.90;;;;;;5055930;28;20815;-87
2023/10/23 07:42:04;;;;;;;81.57;12.13;;;6.30;99.90;;;;;;5047747;28;20236;-84
2023/10/23 07:44:32;;;;;;;39.90;9.93;;;6.40;99.90;;;;;;5048805;28;20857;-84
2023/10/23 07:46:59;;;;;;;53.77;10.93;;;6.40;99.90;;;;;;5049220;28;20224;-84
2023/10/23 07:49:26;;;;;;;109.17;15.50;;;6.40;99.90;;;;;;5051339;28;20291;-86
2023/10/23 07:51:53;;;;;;;38.57;10.00;;;6.60;99.90;;;;;;5058325;28;20224;-86
2023/10/23 07:54:20;;;;;;;115.63;13.70;;;6.60;99.90;;;;;;5057559;28;20232;-86
2023/10/23 07:56:46;;;;;;;82.10;12.33;;;6.60;99.90;;;;;;5058584;28;20244;-86
2023/10/23 07:59:13;;;;;;;73.00;12.63;;;6.60;99.90;;;;;;5058803;28;20228;-86
2023/10/23 08:01:41;;;;;;;54.43;13.80;;;6.70;99.90;;;;;;5059704;28;20234;-84
2023/10/23 08:04:08;;;;;;;96.53;12.87;;;6.70;99.90;;;;;;5054132;28;20313;-85
2023/10/23 08:06:35;;;;;;;91.97;13.97;;;6.80;99.90;;;;;;5054038;28;20235;-85
2023/10/23 08:09:03;;;;;;;84.63;15.37;;;6.80;99.90;;;;;;5057529;28;20218;-87
2023/10/23 08:11:30;;;;;;;167.37;18.03;;;6.90;99.90;;;;;;5057359;28;20258;-84
2023/10/23 08:13:58;;;;;;;64.50;13.73;;;7.00;99.90;;;;;;5055437;28;20296;-85
2023/10/23 08:16:24;;;;;;;36.90;10.73;;;7.00;99.90;;;;;;5051716;28;21052;-86
2023/10/23 08:18:54;;;;;;;95.50;13.57;;;7.10;99.90;;;;;;5054780;28;20764;-85
2023/10/23 08:21:22;;;;;;;154.17;18.40;;;7.20;99.90;;;;;;5062145;28;20263;-84
2023/10/23 08:23:52;;;;;;;99.93;13.47;;;7.30;99.90;;;;;;5051199;28;20256;-84
2023/10/23 08:26:19;;;;;;;89.33;12.70;;;7.40;99.90;;;;;;5045905;28;20685;-85
2023/10/23 08:28:46;;;;;;;108.83;13.17;;;7.40;99.90;;;;;;5057343;28;20238;-85
2023/10/23 08:31:13;;;;;;;51.43;11.03;;;7.50;99.90;;;;;;5050985;28;20222;-84
2023/10/23 08:33:39;;;;;;;57.97;11.13;;;7.60;99.90;;;;;;5061755;28;20290;-84
2023/10/23 08:36:07;;;;;;;52.97;10.30;;;7.70;99.90;;;;;;5061627;28;20313;-84
2023/10/23 08:38:34;;;;;;;62.53;11.23;;;7.70;99.90;;;;;;5053450;28;20370;-85
2023/10/23 08:41:03;;;;;;;35.57;9.87;;;7.70;99.90;;;;;;5060944;28;20297;-85
2023/10/23 08:43:29;;;;;;;23.00;9.90;;;7.80;99.90;;;;;;5051994;28;20268;-84
2023/10/23 08:46:00;;;;;;;50.80;10.87;;;7.80;99.90;;;;;;5039689;28;20260;-84
2023/10/23 08:48:27;;;;;;;83.67;12.33;;;7.90;99.90;;;;;;5062135;28;20294;-86
2023/10/23 08:50:56;;;;;;;49.00;10.77;;;8.00;99.90;;;;;;5048039;28;20230;-85
2023/10/23 08:53:32;;;;;;;53.87;12.07;;;8.00;99.90;;;;;;5051560;28;20220;-87
2023/10/23 08:56:01;;;;;;;19.80;11.10;;;8.10;99.90;;;;;;5045291;28;20226;-85
2023/10/23 08:58:31;;;;;;;15.80;11.37;;;8.20;99.90;;;;;;5048465;28;20217;-83
2023/10/23 09:00:58;;;;;;;33.27;12.63;;;8.30;99.90;;;;;;5054440;28;20256;-84
2023/10/23 09:03:28;;;;;;;87.80;15.17;;;8.40;99.90;;;;;;5053902;28;20352;-84
2023/10/23 09:05:58;;;;;;;75.20;14.90;;;8.50;99.90;;;;;;5055245;28;20226;-83
2023/10/23 09:08:29;;;;;;;75.83;15.27;;;8.50;99.90;;;;;;5053028;28;20411;-86
2023/10/23 09:11:03;;;;;;;26.30;13.50;;;8.60;99.90;;;;;;5068793;28;20302;-84
2023/10/23 09:13:36;;;;;;;49.93;14.30;;;8.70;99.90;;;;;;5056019;28;20267;-84
2023/10/23 09:16:04;;;;;;;33.10;12.40;;;8.80;99.90;;;;;;5055293;28;20236;-83
2023/10/23 09:18:31;;;;;;;27.87;12.37;;;8.90;99.90;;;;;;5052297;28;20276;-84
2023/10/23 09:20:58;;;;;;;24.70;12.27;;;9.00;99.90;;;;;;5052166;28;20233;-85
2023/10/23 09:23:27;;;;;;;17.33;11.53;;;9.10;99.90;;;;;;5061744;28;20217;-84
2023/10/23 09:25:57;;;;;;;88.13;17.97;;;9.10;99.90;;;;;;5059544;28;20241;-85
2023/10/23 09:28:24;;;;;;;40.67;15.33;;;9.10;99.90;;;;;;5057093;28;20764;-85
2023/10/23 09:30:52;;;;;;;23.93;14.47;;;9.20;99.90;;;;;;5053716;28;20305;-84
2023/10/23 09:33:19;;;;;;;28.73;14.93;;;9.20;99.90;;;;;;5066431;28;20222;-84
2023/10/23 09:35:47;;;;;;;27.43;14.87;;;9.30;99.90;;;;;;5055358;28;20230;-84
2023/10/23 09:38:15;;;;;;;36.93;15.07;;;9.30;99.90;;;;;;5053461;28;20220;-86
2023/10/23 09:40:44;;;;;;;66.70;17.20;;;9.40;99.90;;;;;;5054157;28;20229;-84
2023/10/23 09:43:12;;;;;;;56.57;16.33;;;9.50;99.90;;;;;;5060750;28;20230;-85
2023/10/23 09:45:41;;;;;;;195.50;23.33;;;9.50;99.90;;;;;;5054223;28;20228;-84
2023/10/23 09:48:10;;;;;;;36.53;15.30;;;9.60;99.90;;;;;;5053354;28;20783;-84
2023/10/23 09:50:39;;;;;;;75.33;17.73;;;9.70;99.90;;;;;;5062519;28;20302;-83
2023/10/23 09:53:09;;;;;;;128.33;21.10;;;9.80;99.90;;;;;;5056495;28;20571;-84
2023/10/23 09:55:36;;;;;;;23.47;15.70;;;9.90;99.90;;;;;;5056848;28;20233;-85
2023/10/23 09:58:12;;;;;;;37.80;17.60;;;10.00;99.90;;;;;;5052345;28;20252;-84
2023/10/23 10:00:39;;;;;;;25.90;15.93;;;10.10;99.90;;;;;;5045130;28;20226;-86
2023/10/23 10:03:12;;;;;;;28.03;17.70;;;10.20;99.90;;;;;;5068746;28;20242;-86
2023/10/23 10:05:45;;;;;;;23.00;17.27;;;10.30;99.90;;;;;;5081412;28;20223;-85
2023/10/23 10:08:15;;;;;;;22.70;16.60;;;10.40;99.90;;;;;;5077073;28;20223;-85
2023/10/23 10:10:43;;;;;;;54.73;19.20;;;10.50;99.90;;;;;;5083072;28;20219;-85
2023/10/23 10:13:12;;;;;;;22.80;16.93;;;10.60;99.90;;;;;;5076542;28;20219;-84
2023/10/23 10:15:39;;;;;;;24.60;18.07;;;10.70;99.90;;;;;;5079608;28;20229;-86
2023/10/23 10:18:06;;;;;;;26.10;18.60;;;10.70;99.90;;;;;;5060119;28;20675;-85
2023/10/23 10:20:33;;;;;;;22.13;17.37;;;10.70;99.90;;;;;;5056095;28;20235;-85
2023/10/23 10:23:08;;;;;;;20.13;16.13;;;10.80;99.90;;;;;;5059773;28;20226;-85
2023/10/23 10:25:35;;;;;;;17.80;15.33;;;10.90;99.90;;;;;;5059529;28;20244;-85
2023/10/23 10:28:05;;;;;;;19.90;16.13;;;11.10;99.90;;;;;;5061031;28;20226;-88
2023/10/23 10:30:42;;;;;;;19.60;15.20;;;11.30;99.90;;;;;;5064224;28;20779;-86
2023/10/23 10:33:10;;;;;;;15.40;13.20;;;11.60;99.90;;;;;;5060218;28;20773;-85
2023/10/23 10:35:36;;;;;;;14.57;12.60;;;11.90;99.90;;;;;;5056580;28;20249;-86
2023/10/23 10:38:04;;;;;;;13.00;11.60;;;12.20;99.90;;;;;;5046831;28;20225;-86
2023/10/23 10:40:55;;;;;;;14.60;11.60;;;12.60;99.90;;;;;;5043160;28;20469;-87
2023/10/23 10:43:24;;;;;;;11.37;9.10;;;12.90;99.90;;;;;;5049074;28;20245;-85
2023/10/23 10:45:52;;;;;;;9.23;8.27;;;13.20;99.90;;;;;;5035753;28;20239;-85
2023/10/23 10:48:19;;;;;;;9.00;7.73;;;13.50;99.90;;;;;;5042253;28;20889;-86
2023/10/23 10:50:46;;;;;;;8.33;7.20;;;13.80;99.90;;;;;;5041656;28;20622;-85
2023/10/23 10:53:15;;;;;;;7.83;7.03;;;14.00;99.90;;;;;;5035312;28;20224;-87
2023/10/23 10:55:45;;;;;;;8.43;7.47;;;14.20;99.90;;;;;;5033057;28;20318;-86
2023/10/23 10:58:12;;;;;;;9.20;6.60;;;14.50;99.90;;;;;;5028709;28;20664;-86
2023/10/23 11:00:39;;;;;;;8.10;6.63;;;14.70;99.90;;;;;;5034274;28;20598;-87
2023/10/23 11:03:07;;;;;;;7.97;6.43;;;14.80;99.90;;;;;;5040696;28;20609;-87
2023/10/23 11:05:36;;;;;;;9.50;6.77;;;15.00;99.90;;;;;;5034038;28;20733;-86
2023/10/23 11:08:03;;;;;;;7.23;6.07;;;15.20;99.90;;;;;;5036483;28;20237;-85
2023/10/23 11:10:30;;;;;;;6.33;5.73;;;15.30;99.90;;;;;;5037442;28;20605;-88
2023/10/23 11:12:58;;;;;;;7.43;5.43;;;15.50;99.90;;;;;;5050427;28;20223;-86
2023/10/23 11:15:25;;;;;;;6.40;5.70;;;15.60;99.90;;;;;;5032510;28;20617;-85
2023/10/23 11:17:53;;;;;;;6.33;5.43;;;15.70;99.90;;;;;;5039019;28;20852;-86
2023/10/23 11:20:21;;;;;;;6.33;5.13;;;15.80;99.90;;;;;;5031723;28;20252;-86
2023/10/23 11:22:48;;;;;;;7.13;5.17;;;15.90;99.90;;;;;;5031841;28;20413;-79
2023/10/23 11:25:17;;;;;;;7.57;5.53;;;15.90;99.90;;;;;;5054267;28;20809;-78
2023/10/23 11:27:46;;;;;;;5.67;5.03;;;16.00;99.90;;;;;;5032567;28;20219;-79
2023/10/23 11:30:13;;;;;;;6.30;4.90;;;16.10;99.90;;;;;;5035561;28;20221;-79
2023/10/23 11:32:40;;;;;;;8.30;4.93;;;16.10;99.90;;;;;;5039892;28;20224;-79
2023/10/23 11:35:07;;;;;;;6.83;4.43;;;16.20;99.90;;;;;;5039723;28;20220;-79
2023/10/23 11:37:38;;;;;;;6.73;4.70;;;16.30;99.90;;;;;;5035372;28;20231;-79
2023/10/23 11:40:09;;;;;;;6.00;4.47;;;16.40;99.90;;;;;;5036977;28;20259;-80
2023/10/23 11:42:50;;;;;;;6.60;4.50;;;16.50;99.90;;;;;;5038136;28;20240;-78
2023/10/23 11:45:18;;;;;;;8.77;4.43;;;16.50;99.90;;;;;;5039865;28;20237;-78
2023/10/23 11:47:45;;;;;;;7.33;4.20;;;16.60;99.90;;;;;;5032222;28;20727;-79
2023/10/23 11:50:13;;;;;;;5.47;4.23;;;16.60;99.90;;;;;;5035471;28;20243;-79
2023/10/23 11:52:42;;;;;;;5.77;4.20;;;16.70;99.90;;;;;;5036331;28;20235;-77
2023/10/23 11:55:11;;;;;;;6.47;4.23;;;16.60;99.90;;;;;;5038479;28;20245;-79
2023/10/23 11:57:41;;;;;;;5.67;3.93;;;16.60;99.90;;;;;;5032970;28;20690;-79
2023/10/23 12:00:11;;;;;;;8.40;4.17;;;16.60;99.90;;;;;;5035400;28;20443;-79
2023/10/23 12:02:39;;;;;;;6.03;4.43;;;16.60;99.90;;;;;;5038458;28;20281;-79
2023/10/23 12:05:10;;;;;;;7.47;4.40;;;16.60;99.90;;;;;;5038942;28;20251;-80
2023/10/23 12:07:38;;;;;;;15.53;4.60;;;16.60;99.90;;;;;;5035768;28;20596;-79
2023/10/23 12:10:08;;;;;;;12.33;5.00;;;16.60;99.90;;;;;;5034582;28;20216;-79
2023/10/23 12:12:36;;;;;;;5.33;4.27;;;16.50;99.90;;;;;;5037197;28;21218;-80
2023/10/23 12:15:20;;;;;;;6.60;3.90;;;16.50;99.90;;;;;;5034023;28;20229;-84
2023/10/23 12:18:02;;;;;;;5.53;3.60;;;16.60;99.90;;;;;;5036997;28;20257;-82
2023/10/23 12:20:31;;;;;;;5.93;3.60;;;16.50;99.90;;;;;;4996074;28;20309;-80
2023/10/23 12:22:58;;;;;;;6.00;3.63;;;16.50;99.90;;;;;;5034309;28;21069;-79
2023/10/23 12:25:26;;;;;;;5.47;4.13;;;16.50;99.90;;;;;;5042972;28;20239;-79
2023/10/23 12:27:52;;;;;;;6.47;3.80;;;16.40;99.90;;;;;;5035314;28;20228;-79
2023/10/23 12:30:20;;;;;;;3.90;3.23;;;16.40;99.90;;;;;;5042380;28;20773;-78
2023/10/23 12:32:47;;;;;;;8.70;3.50;;;16.40;99.90;;;;;;5043224;28;20233;-78
2023/10/23 12:35:14;;;;;;;4.93;3.40;;;16.40;99.90;;;;;;5041123;28;20311;-78
2023/10/23 12:37:40;;;;;;;5.13;3.17;;;16.40;99.90;;;;;;5037377;28;20224;-78
2023/10/23 12:40:10;;;;;;;8.07;3.17;;;16.40;99.90;;;;;;5036774;28;20310;-79
2023/10/23 12:42:39;;;;;;;4.87;2.77;;;16.30;99.90;;;;;;5040669;28;20231;-78